createdAt,value
2019-04-25T00:01:40.333Z,98209.20
2019-04-25T00:04:14.480Z,98199.13
2019-04-25T00:06:48.457Z,98199.13
2019-04-25T00:09:22.314Z,98199.56
2019-04-25T00:11:54.696Z,98193.91
2019-04-25T00:14:28.753Z,98193.91
2019-04-25T00:17:01.724Z,98195.66
2019-04-25T00:19:35.487Z,98197.17
2019-04-25T00:22:18.305Z,98192.33
2019-04-25T00:24:53.010Z,98196.72
2019-04-25T00:27:26.686Z,98198.22
2019-04-25T00:29:59.688Z,98198.22
2019-04-25T00:32:35.297Z,98196.67
2019-04-25T00:35:08.399Z,98192.91
2019-04-25T00:38:09.434Z,98192.91
2019-04-25T00:48:38.311Z,98200.05
2019-04-25T00:51:11.728Z,98195.20
2019-04-25T00:53:44.618Z,98195.20
2019-04-25T00:56:17.694Z,98213.23
2019-04-25T00:58:54.876Z,98209.05
2019-04-25T01:01:38.623Z,98204.15
2019-04-25T01:04:10.251Z,98203.80
2019-04-25T01:06:52.907Z,98208.66
2019-04-25T01:09:29.391Z,98207.72
2019-04-25T01:12:03.754Z,98207.72
2019-04-25T01:15:06.077Z,98212.29
2019-04-25T01:18:45.545Z,98217.90
2019-04-25T01:24:49.722Z,98221.94
2019-04-25T01:27:23.353Z,98221.94
2019-04-25T01:29:56.435Z,98230.91
2019-04-25T01:32:30.874Z,98224.48
2019-04-25T01:35:17.813Z,98223.42
2019-04-25T01:37:53.959Z,98219.66
2019-04-25T01:40:35.383Z,98232.64
2019-04-25T01:43:13.760Z,98233.81
2019-04-25T01:45:48.083Z,98246.31
2019-04-25T01:48:20.979Z,98223.27
2019-04-25T01:50:55.431Z,98223.27
2019-04-25T01:53:28.037Z,98244.52
2019-04-25T01:56:04.083Z,98248.64
2019-04-25T01:58:34.769Z,98222.80
2019-04-25T02:01:08.069Z,98222.80
2019-04-25T02:03:41.625Z,98236.77
2019-04-25T02:06:15.581Z,98236.77
2019-04-25T02:08:48.143Z,98243.20
2019-04-25T02:11:25.320Z,98251.94
2019-04-25T02:13:57.847Z,98235.22
2019-04-25T02:16:31.295Z,98235.22
2019-04-25T02:19:04.497Z,98265.22
2019-04-25T02:21:36.974Z,98265.22
2019-04-25T02:24:09.518Z,98256.60
2019-04-25T02:26:43.722Z,98265.09
2019-04-25T02:29:16.407Z,98263.59
2019-04-25T02:31:48.790Z,98279.20
2019-04-25T02:34:24.783Z,98282.43
2019-04-25T02:36:59.455Z,98272.31
2019-04-25T02:39:31.300Z,98268.49
2019-04-25T02:42:06.954Z,98272.16
2019-04-25T02:44:39.532Z,98267.08
2019-04-25T02:47:19.404Z,98270.16
2019-04-25T02:49:55.850Z,98257.69
2019-04-25T02:52:38.401Z,98269.25
2019-04-25T02:55:28.024Z,98258.63
2019-04-25T02:57:45.532Z,98266.30
2019-04-25T03:00:45.909Z,98266.11
2019-04-25T03:03:06.873Z,98265.48
2019-04-25T03:05:38.982Z,98268.33
2019-04-25T03:08:11.616Z,98255.18
2019-04-25T03:10:44.488Z,98260.66
2019-04-25T03:13:17.414Z,98267.52
2019-04-25T03:15:52.672Z,98274.81
2019-04-25T03:18:26.752Z,98259.43
2019-04-25T03:21:01.213Z,98272.37
2019-04-25T03:23:35.171Z,98270.46
2019-04-25T03:26:09.203Z,98259.81
2019-04-25T03:28:43.651Z,98259.81
2019-04-25T03:31:22.374Z,98267.30
2019-04-25T03:33:50.428Z,98273.47
2019-04-25T03:36:23.871Z,98268.02
2019-04-25T03:38:55.540Z,98267.70
2019-04-25T03:41:29.659Z,98268.11
2019-04-25T03:44:03.046Z,98279.48
2019-04-25T03:46:36.877Z,98285.03
2019-04-25T03:49:09.683Z,98281.17
2019-04-25T03:51:43.751Z,98284.34
2019-04-25T03:54:17.147Z,98285.84
2019-04-25T03:56:54.342Z,98277.55
2019-04-25T03:59:26.347Z,98274.60
2019-04-25T04:02:01.125Z,98265.63
2019-04-25T04:04:33.528Z,98265.63
2019-04-25T04:07:08.825Z,98261.27
2019-04-25T04:09:40.366Z,98254.70
2019-04-25T04:12:14.479Z,98236.47
2019-04-25T04:14:46.787Z,98236.47
2019-04-25T04:17:39.474Z,98249.12
2019-04-25T04:20:11.812Z,98228.89
2019-04-25T04:22:43.995Z,98226.88
2019-04-25T04:25:18.264Z,98204.31
2019-04-25T04:27:50.569Z,98198.65
2019-04-25T04:30:24.161Z,98201.78
2019-04-25T04:32:56.653Z,98211.70
2019-04-25T04:35:29.405Z,98222.10
2019-04-25T04:38:02.134Z,98235.57
2019-04-25T04:40:36.197Z,98253.17
2019-04-25T04:43:09.598Z,98255.69
2019-04-25T04:45:43.869Z,98255.69
2019-04-25T04:48:16.699Z,98259.64
2019-04-25T04:50:49.286Z,98249.84
2019-04-25T04:53:23.453Z,98235.88
2019-04-25T04:55:56.285Z,98235.88
2019-04-25T04:58:28.630Z,98242.43
2019-04-25T05:01:01.352Z,98242.43
2019-04-25T05:03:38.445Z,98247.28
2019-04-25T05:06:14.863Z,98242.63
2019-04-25T05:08:51.286Z,98239.17
2019-04-25T05:11:25.511Z,98233.09
2019-04-25T05:13:58.065Z,98233.09
2019-04-25T05:16:30.450Z,98234.59
2019-04-25T05:19:03.735Z,98231.63
2019-04-25T05:21:36.305Z,98235.34
2019-04-25T05:24:08.787Z,98222.30
2019-04-25T05:26:41.290Z,98222.30
2019-04-25T05:29:17.199Z,98227.55
2019-04-25T05:31:49.490Z,98227.55
2019-04-25T05:34:21.852Z,98229.12
2019-04-25T05:36:58.786Z,98227.52
2019-04-25T05:39:31.437Z,98228.11
2019-04-25T05:42:08.389Z,98224.56
2019-04-25T05:44:41.007Z,98221.40
2019-04-25T05:47:15.084Z,98226.42
2019-04-25T05:49:47.851Z,98225.87
2019-04-25T05:52:20.318Z,98226.80
2019-04-25T05:54:54.018Z,98208.06
2019-04-25T05:57:26.695Z,98208.06
2019-04-25T05:59:59.318Z,98223.41
2019-04-25T06:02:31.324Z,98217.37
2019-04-25T06:05:04.291Z,98217.37
2019-04-25T06:07:36.363Z,98235.86
2019-04-25T06:10:17.389Z,98235.49
2019-04-25T06:12:55.296Z,98242.38
2019-04-25T06:15:30.613Z,98225.34
2019-04-25T06:18:04.721Z,98225.34
2019-04-25T06:20:38.319Z,98236.61
2019-04-25T06:23:22.622Z,98228.88
2019-04-25T06:25:56.681Z,98232.30
2019-04-25T06:28:30.695Z,98235.98
2019-04-25T06:31:10.142Z,98234.88
2019-04-25T06:33:40.677Z,98223.63
2019-04-25T06:36:13.961Z,98223.63
2019-04-25T06:38:46.549Z,98232.44
2019-04-25T06:41:18.871Z,98225.61
2019-04-25T06:43:54.140Z,98224.41
2019-04-25T06:46:44.621Z,98218.01
2019-04-25T06:49:25.141Z,98218.01
2019-04-25T06:51:56.912Z,98220.69
2019-04-25T06:54:29.613Z,98218.95
2019-04-25T06:57:02.284Z,98212.23
2019-04-25T06:59:34.559Z,98205.70
2019-04-25T07:02:07.414Z,98203.80
2019-04-25T07:04:39.770Z,98195.57
2019-04-25T07:07:13.084Z,98202.75
2019-04-25T07:09:46.722Z,98192.78
2019-04-25T07:12:20.773Z,98190.00
2019-04-25T07:14:53.913Z,98191.58
2019-04-25T07:17:26.268Z,98186.33
2019-04-25T07:19:58.540Z,98178.27
2019-04-25T07:22:31.291Z,98181.02
2019-04-25T07:25:07.372Z,98177.84
2019-04-25T07:27:53.485Z,98181.84
2019-04-25T07:30:43.805Z,98151.73
2019-04-25T07:33:23.288Z,98163.75
2019-04-25T07:35:57.270Z,98163.75
2019-04-25T07:38:31.085Z,98163.20
2019-04-25T07:41:03.855Z,98163.20
2019-04-25T07:43:39.496Z,98150.86
2019-04-25T07:46:13.479Z,98146.23
2019-04-25T07:48:46.426Z,98140.89
2019-04-25T07:51:19.047Z,98136.02
2019-04-25T07:53:53.333Z,98146.69
2019-04-25T07:56:27.780Z,98151.38
2019-04-25T07:59:00.301Z,98134.94
2019-04-25T08:01:36.210Z,98130.95
2019-04-25T08:04:08.661Z,98130.95
2019-04-25T08:06:41.319Z,98134.06
2019-04-25T08:09:15.691Z,98138.59
2019-04-25T08:11:48.449Z,98138.59
2019-04-25T08:14:25.562Z,98132.52
2019-04-25T08:16:59.755Z,98133.75
2019-04-25T08:19:33.511Z,98133.52
2019-04-25T08:23:44.282Z,98127.33
2019-04-25T08:26:16.876Z,98091.59
2019-04-25T08:28:55.161Z,98091.59
2019-04-25T08:31:23.523Z,98116.83
2019-04-25T08:33:57.433Z,98128.09
2019-04-25T08:36:30.288Z,98124.73
2019-04-25T08:39:04.306Z,98125.09
2019-04-25T08:41:39.885Z,98120.75
2019-04-25T08:44:14.061Z,98119.89
2019-04-25T08:46:48.702Z,98123.88
2019-04-25T08:49:28.762Z,98121.50
2019-04-25T08:52:01.333Z,98121.45
2019-04-25T08:54:40.896Z,98119.11
2019-04-25T08:57:13.911Z,98122.44
2019-04-25T08:59:55.572Z,98118.36
2019-04-25T09:02:37.174Z,98116.34
2019-04-25T09:05:36.009Z,98108.54
2019-04-25T09:08:10.540Z,98111.98
2019-04-25T09:10:43.712Z,98087.87
2019-04-25T09:13:17.285Z,98087.87
2019-04-25T09:15:49.712Z,98111.81
2019-04-25T09:18:24.101Z,98111.81
2019-04-25T09:20:57.422Z,98113.38
2019-04-25T09:23:31.428Z,98105.78
2019-04-25T09:26:03.974Z,98102.34
2019-04-25T09:28:40.714Z,98096.22
2019-04-25T09:31:13.980Z,98091.29
2019-04-25T09:33:46.797Z,98092.25
2019-04-25T09:36:19.305Z,98091.70
2019-04-25T09:38:53.895Z,98073.73
2019-04-25T09:41:27.781Z,98077.29
2019-04-25T09:44:01.755Z,98077.29
2019-04-25T09:46:36.327Z,98074.45
2019-04-25T09:49:14.189Z,98074.63
2019-04-25T09:51:48.361Z,98070.77
2019-04-25T09:54:39.849Z,98068.66
2019-04-25T09:57:33.510Z,98068.66
2019-04-25T10:00:10.463Z,98061.94
2019-04-25T10:02:55.125Z,98059.81
2019-04-25T10:05:27.918Z,98052.03
2019-04-25T10:10:56.286Z,98041.50
2019-04-25T10:13:29.270Z,98039.45
2019-04-25T10:16:05.771Z,98039.45
2019-04-25T10:18:39.228Z,98046.34
2019-04-25T10:21:14.495Z,98036.25
2019-04-25T10:23:48.207Z,98039.91
2019-04-25T10:26:23.526Z,98037.77
2019-04-25T10:28:56.044Z,98028.95
2019-04-25T10:31:28.628Z,98023.17
2019-04-25T10:34:01.945Z,98024.52
2019-04-25T10:36:35.297Z,98021.23
2019-04-25T10:39:11.500Z,98018.47
2019-04-25T10:41:46.100Z,98018.47
2019-04-25T10:44:18.794Z,98005.88
2019-04-25T10:46:54.656Z,98013.65
2019-04-25T10:49:28.300Z,98011.00
2019-04-25T10:52:01.009Z,97988.43
2019-04-25T10:54:35.125Z,97988.43
2019-04-25T10:57:07.992Z,97993.44
2019-04-25T10:59:52.983Z,97984.22
2019-04-25T11:02:15.295Z,97987.09
2019-04-25T11:04:51.742Z,97986.17
2019-04-25T11:07:24.579Z,97977.36
2019-04-25T11:09:58.521Z,97976.45
2019-04-25T11:12:31.379Z,97976.36
2019-04-25T11:15:08.481Z,97963.59
2019-04-25T11:17:42.578Z,97960.64
2019-04-25T11:20:29.363Z,97960.63
2019-04-25T11:23:03.652Z,97938.16
2019-04-25T11:25:36.494Z,97938.16
2019-04-25T11:28:11.870Z,97944.29
2019-04-25T11:30:47.296Z,97943.61
2019-04-25T11:33:20.407Z,97937.81
2019-04-25T11:35:56.284Z,97931.27
2019-04-25T11:38:48.093Z,97924.59
2019-04-25T11:41:24.276Z,97924.59
2019-04-25T11:44:00.491Z,97945.30
2019-04-25T11:46:34.495Z,97947.36
2019-04-25T11:49:08.793Z,97950.77
2019-04-25T11:51:41.837Z,97943.69
2019-04-25T11:54:18.304Z,97953.83
2019-04-25T11:56:50.826Z,97951.05
2019-04-25T11:59:23.615Z,97951.05
2019-04-25T12:01:57.392Z,97955.96
2019-04-25T12:04:30.252Z,97955.64
2019-04-25T12:07:04.205Z,97948.48
2019-04-25T12:09:36.802Z,97941.39
2019-04-25T12:12:09.735Z,97947.98
2019-04-25T12:14:44.192Z,97936.64
2019-04-25T12:17:16.998Z,97928.02
2019-04-25T12:19:49.670Z,97918.51
2019-04-25T12:22:23.874Z,97919.52
2019-04-25T12:24:56.360Z,97913.28
2019-04-25T12:27:29.316Z,97911.17
2019-04-25T12:30:01.446Z,97913.02
2019-04-25T12:32:35.058Z,97907.03
2019-04-25T12:35:16.402Z,97903.02
2019-04-25T12:37:52.162Z,97891.54
2019-04-25T12:40:25.567Z,97896.27
2019-04-25T12:42:59.337Z,97899.25
2019-04-25T12:45:45.854Z,97904.11
2019-04-25T12:48:18.550Z,97904.11
2019-04-25T12:50:52.077Z,97884.94
2019-04-25T12:53:24.723Z,97886.30
2019-04-25T12:55:57.299Z,97889.37
2019-04-25T12:58:29.840Z,97857.91
2019-04-25T13:01:04.494Z,97857.91
2019-04-25T13:05:19.299Z,97889.29
2019-04-25T13:07:54.258Z,97877.50
2019-04-25T13:10:26.363Z,97877.50
2019-04-25T13:12:59.698Z,97882.09
2019-04-25T13:15:33.418Z,97873.91
2019-04-25T13:18:07.617Z,97879.02
2019-04-25T13:20:40.343Z,97870.84
2019-04-25T13:23:14.461Z,97873.94
2019-04-25T13:25:47.286Z,97875.16
2019-04-25T13:28:34.174Z,97867.16
2019-04-25T13:31:12.476Z,97867.16
2019-04-25T13:33:47.058Z,97874.31
2019-04-25T13:36:21.290Z,97859.05
2019-04-25T13:38:54.042Z,97848.85
2019-04-25T13:41:26.964Z,97848.85
2019-04-25T13:43:59.651Z,97861.02
2019-04-25T13:46:34.198Z,97851.99
2019-04-25T13:49:07.297Z,97846.43
2019-04-25T13:51:39.754Z,97856.45
2019-04-25T13:54:13.072Z,97856.45
2019-04-25T13:56:46.653Z,97838.44
2019-04-25T13:59:19.278Z,97830.80
2019-04-25T14:01:51.791Z,97806.16
2019-04-25T14:04:25.457Z,97806.16
2019-04-25T14:06:59.727Z,97820.29
2019-04-25T14:09:34.694Z,97820.29
2019-04-25T14:12:08.552Z,97826.34
2019-04-25T14:14:40.389Z,97820.41
2019-04-25T14:17:21.514Z,97767.77
2019-04-25T14:19:57.443Z,97767.77
2019-04-25T14:22:30.412Z,97802.90
2019-04-25T14:25:03.975Z,97802.24
2019-04-25T14:27:37.266Z,97801.96
2019-04-25T14:30:11.517Z,97787.69
2019-04-25T14:32:44.288Z,97787.69
2019-04-25T14:35:16.764Z,97766.79
2019-04-25T14:37:49.391Z,97766.79
2019-04-25T14:40:25.788Z,97792.14
2019-04-25T14:43:00.282Z,97781.78
2019-04-25T14:45:44.034Z,97779.56
2019-04-25T14:48:07.297Z,97779.56
2019-04-25T14:50:39.591Z,97780.48
2019-04-25T14:53:12.002Z,97781.38
2019-04-25T14:56:03.407Z,97779.95
2019-04-25T14:58:37.713Z,97780.75
2019-04-25T15:01:10.762Z,97778.10
2019-04-25T15:03:43.297Z,97765.11
2019-04-25T15:06:15.892Z,97759.59
2019-04-25T15:08:48.737Z,97765.05
2019-04-25T15:11:23.115Z,97766.95
2019-04-25T15:13:55.766Z,97760.16
2019-04-25T15:16:29.049Z,97760.16
2019-04-25T15:19:01.703Z,97765.11
2019-04-25T15:21:34.313Z,97770.28
2019-04-25T15:24:06.755Z,97744.61
2019-04-25T15:26:40.426Z,97744.61
2019-04-25T15:29:13.019Z,97767.29
2019-04-25T15:31:55.338Z,97760.53
2019-04-25T15:34:25.034Z,97761.31
2019-04-25T15:37:15.727Z,97757.63
2019-04-25T15:39:49.702Z,97766.19
2019-04-25T15:42:27.408Z,97760.14
2019-04-25T15:45:19.122Z,97762.08
2019-04-25T15:47:53.403Z,97762.08
2019-04-25T15:50:26.409Z,97762.64
2019-04-25T15:55:49.942Z,97746.02
2019-04-25T15:58:23.137Z,97748.16
2019-04-25T16:00:56.699Z,97754.95
2019-04-25T16:03:30.815Z,97747.23
2019-04-25T16:06:03.702Z,97745.47
2019-04-25T16:08:35.915Z,97746.23
2019-04-25T16:11:08.494Z,97742.92
2019-04-25T16:13:41.412Z,97734.92
2019-04-25T16:16:13.345Z,97736.63
2019-04-25T16:18:46.013Z,97744.83
2019-04-25T16:21:18.567Z,97744.83
2019-04-25T16:23:51.280Z,97746.52
2019-04-25T16:26:28.025Z,97755.98
2019-04-25T16:29:02.662Z,97755.98
2019-04-25T16:31:35.303Z,97752.92
2019-04-25T16:34:07.887Z,97757.09
2019-04-25T16:36:40.419Z,97757.09
2019-04-25T16:39:20.447Z,97752.95
2019-04-25T16:41:53.472Z,97754.30
2019-04-25T16:44:26.292Z,97758.64
2019-04-25T16:46:58.648Z,97727.18
2019-04-25T16:49:31.316Z,97727.18
2019-04-25T16:52:03.773Z,97759.55
2019-04-25T16:54:36.384Z,97759.55
2019-04-25T16:57:09.006Z,97766.70
2019-04-25T16:59:42.047Z,97766.70
2019-04-25T17:02:15.283Z,97766.56
2019-04-25T17:05:03.687Z,97768.77
2019-04-25T17:07:42.297Z,97775.76
2019-04-25T19:39:42.808Z,98057.97
2019-04-25T19:42:19.247Z,98071.44
2019-04-25T19:44:51.688Z,98067.64
2019-04-25T19:47:24.292Z,98086.80
2019-04-25T19:49:56.583Z,98106.09
2019-04-25T19:52:29.674Z,98106.09
2019-04-25T19:55:03.985Z,98112.51
2019-04-25T19:57:36.537Z,98127.70
2019-04-25T20:00:10.376Z,98139.97
2019-04-25T20:02:44.750Z,98143.98
2019-04-25T20:05:31.397Z,98154.10
2019-04-25T20:08:10.200Z,98159.15
2019-04-25T20:10:45.095Z,98158.56
2019-04-25T20:13:18.040Z,98156.13
2019-04-25T20:15:51.664Z,98156.13
2019-04-25T20:19:49.798Z,98174.95
2019-04-25T20:22:22.449Z,98179.66
2019-04-25T20:24:56.804Z,98188.14
2019-04-25T20:27:29.413Z,98188.31
2019-04-25T20:30:02.549Z,98204.44
2019-04-25T20:32:36.776Z,98204.44
2019-04-25T20:35:11.532Z,98221.17
2019-04-25T20:37:47.491Z,98223.93
2019-04-25T20:40:20.301Z,98227.36
2019-04-25T20:42:52.844Z,98243.70
2019-04-25T20:45:25.630Z,98243.70
2019-04-25T20:47:58.327Z,98248.92
2019-04-25T20:50:30.859Z,98247.61
2019-04-25T20:53:04.418Z,98256.91
2019-04-25T20:55:36.864Z,98263.96
2019-04-25T20:58:09.400Z,98264.22
2019-04-25T21:00:47.103Z,98280.14
2019-04-25T21:03:20.654Z,98282.90
2019-04-25T21:05:55.135Z,98283.74
2019-04-25T21:08:27.704Z,98249.69
2019-04-25T21:11:00.296Z,98249.69
2019-04-25T21:13:36.351Z,98270.70
2019-04-25T21:16:27.184Z,98270.70
2019-04-25T21:19:03.820Z,98282.94
2019-04-25T21:21:40.888Z,98282.94
2019-04-25T21:24:13.654Z,98296.09
2019-04-25T21:26:47.645Z,98296.22
2019-04-25T21:29:23.923Z,98304.98
2019-04-25T21:32:01.062Z,98306.89
2019-04-25T21:34:34.598Z,98314.86
2019-04-25T21:37:07.721Z,98308.70
2019-04-25T21:39:49.881Z,98307.56
2019-04-25T21:42:28.344Z,98311.25
2019-04-25T21:45:02.467Z,98313.34
2019-04-25T21:47:36.302Z,98331.56
2019-04-25T21:50:11.810Z,98349.03
2019-04-25T21:52:46.314Z,98338.89
2019-04-25T21:55:21.031Z,98320.83
2019-04-25T21:57:55.820Z,98323.73
2019-04-25T22:00:36.721Z,98314.19
2019-04-25T22:03:11.324Z,98314.19
2019-04-25T22:05:44.663Z,98320.69
2019-04-25T22:08:19.325Z,98324.45
2019-04-25T22:10:57.248Z,98326.99
2019-04-25T22:13:29.787Z,98327.06
2019-04-25T22:16:02.538Z,98312.70
2019-04-25T22:18:35.693Z,98307.89
2019-04-25T22:21:09.780Z,98300.05
2019-04-25T22:23:47.153Z,98300.05
2019-04-25T22:26:20.293Z,98310.66
2019-04-25T22:28:52.860Z,98298.22
2019-04-25T22:31:29.852Z,98326.31
2019-04-25T22:34:04.525Z,98341.86
2019-04-25T22:36:38.325Z,98332.55
2019-04-25T22:39:14.888Z,98328.64
2019-04-25T22:41:50.471Z,98332.91
2019-04-25T22:44:23.276Z,98332.70
2019-04-25T22:46:56.286Z,98332.29
2019-04-25T22:49:28.785Z,98331.75
2019-04-25T22:52:03.299Z,98331.75
2019-04-25T22:54:37.671Z,98309.66
2019-04-25T22:57:10.855Z,98309.66
2019-04-25T23:04:21.420Z,98326.58
2019-04-25T23:06:54.303Z,98331.45
2019-04-25T23:09:34.516Z,98335.73
2019-04-25T23:12:09.299Z,98335.73
2019-04-25T23:14:44.143Z,98339.24
2019-04-25T23:17:17.306Z,98333.59
2019-04-25T23:19:51.297Z,98321.97
2019-04-25T23:22:24.916Z,98305.57
2019-04-25T23:25:03.460Z,98305.57
2019-04-25T23:27:36.263Z,98320.30
2019-04-25T23:30:14.443Z,98305.55
2019-04-25T23:32:48.338Z,98314.75
2019-04-25T23:35:29.360Z,98322.84
2019-04-25T23:37:57.136Z,98335.44
2019-04-25T23:40:29.651Z,98352.04
2019-04-25T23:43:05.202Z,98352.04
2019-04-25T23:45:43.727Z,98331.16
2019-04-25T23:48:18.298Z,98297.41
2019-04-25T23:50:53.469Z,98276.57
2019-04-25T23:53:25.294Z,98276.57
2019-04-25T23:55:57.787Z,98313.19
2019-04-25T23:58:30.421Z,98313.19
